Overview Statistics Trail Chart Weather Telemetry Raw packets
 

This is the latest recevied weather packets stored in our database for station/object EA8EE-7. If no packets are shown the sender has not sent any weather packets the latest 10 day(s).

<< 16 17 18 19 20 21 22 >>
Time Temp. Humidity Pressure Rain* Wind** Luminosity Snow
1788373185 34.44° C 35% 1025.5 hPa - - - -
1788372585 35° C 34% 1027.2 hPa - - - -
1788371985 35.56° C 34% 1026.4 hPa - - - -
1788371385 36.11° C 33% 1027.4 hPa - - - -
1788370785 36.67° C 32% 1028.4 hPa - - - -
1788370185 36.67° C 32% 1027.2 hPa - - - -
1788369585 37.22° C 32% 1028.5 hPa - - - -
1788368984 37.22° C 31% 1027.3 hPa - - - -
1788368384 37.22° C 31% 1026.8 hPa - - - -
1788367784 37.22° C 29% 1026.8 hPa - - - -
1788367184 38.33° C 27% 1026.6 hPa - - - -
1788366584 40.56° C 28% 1034.7 hPa - - - -
1788365984 40.56° C 25% 1053.1 hPa - - - -
1788362929 46.11° C 20% 1026 hPa - - - -
1788362329 45° C 20% 1025.3 hPa - - - -
1788361729 45° C 20% 1016.8 hPa - - - -
1788361129 41.67° C 23% 1018 hPa - - - -
1788360529 35.56° C 33% 1017.6 hPa - - - -
1788359063 35° C 35% 954.3 hPa - - - -
1788358463 35° C 34% 952.6 hPa - - - -
1788357863 35° C 34% 944.2 hPa - - - -
1788357263 35.56° C 33% 983 hPa - - - -
1788356663 35° C 33% 981.6 hPa - - - -
1788356063 35° C 33% 1020 hPa - - - -
1788355463 35° C 32% 1020.7 hPa - - - -

* Rain since midnight (hover to see other rain measurements)
** Current wind speed in m/s (hover to see current wind gust speed)